Time;durP1;ratioP1;P1;durP2;ratioP2;P2;SDS_P1;SDS_P2;PMS_P1;PMS_P2;Temp;Humidity;BMP_temperature;BMP_pressure;BME280_temperature;BME280_humidity;BME280_pressure;Samples;Min_cycle;Max_cycle;Signal;HPM_P1;HPM_P2
2021/07/11 00:01:44;;;;;;;7.95;4.25;;;;;;;19.73;62.55;100324.25;4914622;28;97322;-84
2021/07/11 00:04:10;;;;;;;8.50;4.55;;;;;;;19.52;62.84;100311.47;4912164;28;101220;-84
2021/07/11 00:06:37;;;;;;;5.30;3.97;;;;;;;19.61;63.11;100328.59;4921283;28;98436;-85
2021/07/11 00:09:04;;;;;;;12.23;4.47;;;;;;;19.63;63.35;100345.28;4915679;28;97254;-84
2021/07/11 00:11:30;;;;;;;12.88;4.57;;;;;;;19.41;63.62;100306.06;4917979;28;97842;-86
2021/07/11 00:14:00;;;;;;;13.38;4.53;;;;;;;19.37;63.96;100323.19;4904643;28;98151;-84
2021/07/11 00:16:26;;;;;;;8.77;4.18;;;;;;;19.54;63.83;100341.47;4906339;28;101433;-84
2021/07/11 00:18:51;;;;;;;6.15;4.47;;;;;;;19.40;63.70;100329.16;4927908;28;96781;-84
2021/07/11 00:21:17;;;;;;;11.25;4.05;;;;;;;19.41;64.07;100333.53;4913677;28;97292;-84
2021/07/11 00:23:42;;;;;;;4.97;4.15;;;;;;;19.51;63.67;100339.03;4910550;28;101691;-84
2021/07/11 00:26:08;;;;;;;5.63;3.88;;;;;;;19.52;63.78;100345.19;4889524;28;100645;-84
2021/07/11 00:28:33;;;;;;;8.30;3.95;;;;;;;19.43;63.63;100339.59;4913766;28;97454;-85
2021/07/11 00:30:59;;;;;;;6.03;4.57;;;;;;;19.47;63.67;100328.72;4882254;28;96905;-84
2021/07/11 00:33:24;;;;;;;8.13;4.20;;;;;;;19.42;63.98;100342.34;4895208;28;101517;-84
2021/07/11 00:35:50;;;;;;;6.65;4.60;;;;;;;19.24;64.28;100325.88;4933557;28;97029;-84
2021/07/11 00:38:16;;;;;;;6.03;4.05;;;;;;;19.26;64.71;100334.59;4904091;28;96767;-84
2021/07/11 00:40:42;;;;;;;7.57;4.10;;;;;;;19.13;64.35;100326.63;4922608;28;96878;-85
2021/07/11 00:43:09;;;;;;;5.68;4.07;;;;;;;19.28;64.32;100345.97;4910441;28;98592;-84
2021/07/11 00:45:38;;;;;;;9.70;4.47;;;;;;;19.15;64.42;100343.34;4893698;28;100468;-85
2021/07/11 00:48:04;;;;;;;7.20;3.88;;;;;;;19.20;64.73;100349.19;4888115;28;96876;-84
2021/07/11 00:50:31;;;;;;;5.55;4.00;;;;;;;19.10;64.34;100324.16;4897732;28;96872;-83
2021/07/11 00:53:08;;;;;;;5.07;3.78;;;;;;;19.13;64.68;100341.72;4904949;28;99862;-84
2021/07/11 00:55:37;;;;;;;6.68;4.22;;;;;;;19.07;64.45;100318.22;4900456;28;101127;-84
2021/07/11 00:58:04;;;;;;;5.55;3.63;;;;;;;19.16;64.59;100353.00;4901667;28;96756;-84
2021/07/11 01:00:37;;;;;;;5.30;3.72;;;;;;;19.13;64.87;100350.56;4909314;28;96833;-84
2021/07/11 01:03:09;;;;;;;8.27;3.90;;;;;;;19.18;64.45;100359.09;4901116;28;101652;-84
2021/07/11 01:05:36;;;;;;;5.18;3.45;;;;;;;19.07;64.41;100329.69;4913239;28;100409;-85
2021/07/11 01:08:13;;;;;;;6.20;3.78;;;;;;;19.11;64.38;100341.84;4886996;28;97865;-83
2021/07/11 01:10:44;;;;;;;9.60;3.38;;;;;;;19.08;64.97;100354.50;4928919;28;97201;-84
2021/07/11 01:13:13;;;;;;;7.82;3.83;;;;;;;19.01;65.09;100348.75;4913389;28;101895;-83
2021/07/11 01:15:46;;;;;;;5.88;4.13;;;;;;;18.93;65.22;100351.94;4900149;28;99898;-84
2021/07/11 01:18:13;;;;;;;7.38;4.03;;;;;;;19.01;65.44;100362.06;4906858;28;97355;-84
2021/07/11 01:20:45;;;;;;;5.68;4.68;;;;;;;18.93;65.33;100348.41;4909684;28;97025;-85
2021/07/11 01:23:44;;;;;;;8.07;3.60;;;;;;;18.95;65.58;100362.47;4910325;28;100243;-84
2021/07/11 01:26:13;;;;;;;5.25;3.38;;;;;;;18.78;65.69;100337.88;4902652;28;102279;-84
2021/07/11 01:28:40;;;;;;;5.10;3.83;;;;;;;18.80;65.85;100347.56;4932245;28;96916;-84
2021/07/11 01:31:07;;;;;;;5.68;3.80;;;;;;;18.88;65.97;100358.50;4895972;28;97011;-84
2021/07/11 01:33:36;;;;;;;6.13;3.80;;;;;;;18.84;65.79;100359.69;4938507;28;98073;-84
2021/07/11 01:36:03;;;;;;;5.88;3.88;;;;;;;18.82;65.90;100356.28;4938952;28;99281;-84
2021/07/11 01:38:30;;;;;;;8.10;4.13;;;;;;;18.80;65.92;100361.72;4910095;28;96780;-84
2021/07/11 01:40:57;;;;;;;8.32;3.80;;;;;;;18.63;65.95;100333.56;4916466;28;96968;-84
2021/07/11 01:43:23;;;;;;;3.83;3.40;;;;;;;18.54;66.00;100334.19;4919527;28;101598;-84
2021/07/11 01:45:54;;;;;;;5.15;3.65;;;;;;;18.71;66.05;100357.84;4897290;28;101580;-84
2021/07/11 01:48:20;;;;;;;5.88;3.80;;;;;;;18.68;66.20;100358.03;4903190;28;96957;-84
2021/07/11 01:50:50;;;;;;;5.60;3.53;;;;;;;18.50;66.59;100338.88;4919145;28;96912;-84
2021/07/11 01:53:27;;;;;;;;;;;;;;;18.55;66.72;100360.66;4908584;28;101554;-84
2021/07/11 01:55:53;;;;;;;6.20;3.53;;;;;;;18.55;66.74;100360.66;4919231;28;98118;-84
2021/07/11 01:58:20;;;;;;;9.05;3.53;;;;;;;18.51;66.98;100360.97;4893442;28;96698;-84
2021/07/11 02:00:49;;;;;;;5.35;3.13;;;;;;;18.44;66.75;100355.22;4918252;28;97192;-84
2021/07/11 02:03:20;;;;;;;6.75;3.75;;;;;;;18.54;66.22;100356.31;4903405;28;101446;-83
2021/07/11 02:06:05;;;;;;;7.95;4.40;;;;;;;18.58;66.31;100369.38;4906389;28;98085;-84
2021/07/11 02:08:36;;;;;;;4.93;3.45;;;;;;;18.49;66.86;100365.53;4916623;28;96835;-83
2021/07/11 02:11:03;;;;;;;8.82;3.92;;;;;;;18.32;67.15;100364.84;4906873;28;96980;-83
2021/07/11 02:14:01;;;;;;;8.48;3.72;;;;;;;18.44;66.95;100375.59;4914654;28;101701;-83
2021/07/11 02:16:36;;;;;;;4.68;3.42;;;;;;;18.40;66.83;100374.13;4898690;28;100315;-84
2021/07/11 02:19:04;;;;;;;7.85;3.70;;;;;;;18.51;66.59;100382.25;4903701;28;97225;-84
2021/07/11 02:21:33;;;;;;;4.07;3.67;;;;;;;18.44;66.48;100386.22;4916296;28;97332;-84
2021/07/11 02:24:04;;;;;;;5.20;3.42;;;;;;;18.36;66.29;100362.00;4895386;28;101393;-83
2021/07/11 02:26:30;;;;;;;5.13;3.72;;;;;;;18.32;66.66;100364.84;4922312;28;99841;-83
2021/07/11 02:28:59;;;;;;;5.35;3.95;;;;;;;18.44;66.47;100381.81;4918542;28;97174;-84
2021/07/11 02:31:29;;;;;;;8.80;4.10;;;;;;;18.28;66.41;100360.69;4908206;28;96908;-83
2021/07/11 02:33:54;;;;;;;4.43;3.63;;;;;;;18.33;66.59;100377.19;4906690;28;100543;-84
2021/07/11 02:36:24;;;;;;;6.32;3.67;;;;;;;18.31;66.72;100383.53;4910737;28;101060;-83
2021/07/11 02:39:02;;;;;;;6.50;3.45;;;;;;;18.30;66.83;100392.47;4915941;28;96750;-83
2021/07/11 02:41:37;;;;;;;5.93;3.75;;;;;;;18.21;67.28;100382.41;4888012;28;96794;-83
2021/07/11 02:44:06;;;;;;;4.97;3.88;;;;;;;18.10;67.21;100369.84;4924369;28;98622;-84
2021/07/11 02:46:36;;;;;;;5.93;3.88;;;;;;;18.13;67.19;100382.09;4896677;28;102106;-83
2021/07/11 02:49:06;;;;;;;6.80;3.70;;;;;;;18.10;67.14;100369.84;4892411;28;96868;-84
2021/07/11 02:51:37;;;;;;;9.07;3.63;;;;;;;18.06;67.18;100374.53;4903187;28;96868;-83
2021/07/11 02:54:06;;;;;;;7.32;3.97;;;;;;;18.06;67.15;100363.00;4929760;28;98534;-83
2021/07/11 02:56:35;;;;;;;8.77;3.72;;;;;;;18.16;66.96;100382.72;4891620;28;101718;-83
2021/07/11 02:59:06;;;;;;;5.18;3.60;;;;;;;18.13;67.11;100385.59;4903319;28;96806;-83
2021/07/11 03:01:35;;;;;;;4.50;3.55;;;;;;;18.16;67.22;100382.72;4916182;28;96815;-83
2021/07/11 03:04:02;;;;;;;5.88;3.72;;;;;;;18.14;66.93;100389.94;4911308;28;101584;-84
2021/07/11 03:06:35;;;;;;;5.55;3.95;;;;;;;18.12;67.15;100386.53;4900127;28;98429;-83
2021/07/11 03:09:03;;;;;;;5.05;3.67;;;;;;;18.15;67.28;100385.47;4912634;28;96765;-84
2021/07/11 03:11:33;;;;;;;6.43;3.95;;;;;;;18.29;66.70;100390.75;4908202;28;96807;-84
2021/07/11 03:14:00;;;;;;;6.40;4.00;;;;;;;18.07;67.45;100373.56;4915353;28;101032;-85
2021/07/11 03:16:32;;;;;;;5.38;3.45;;;;;;;17.99;66.90;100354.59;4915876;28;100328;-83
2021/07/11 03:18:59;;;;;;;6.45;3.97;;;;;;;18.21;67.03;100382.41;4908376;28;97272;-83
2021/07/11 03:21:29;;;;;;;8.93;4.00;;;;;;;18.21;66.78;100391.28;4893608;28;97245;-83
2021/07/11 03:23:55;;;;;;;4.20;3.55;;;;;;;18.19;67.04;100397.63;4917831;28;101110;-83
2021/07/11 03:26:22;;;;;;;8.02;4.30;;;;;;;18.21;67.03;100385.06;4905669;28;101309;-84
2021/07/11 03:28:49;;;;;;;4.80;3.15;;;;;;;18.38;66.58;100399.94;4921470;28;97191;-84
2021/07/11 03:31:15;;;;;;;5.85;4.20;;;;;;;18.43;66.16;100395.16;4899496;28;96948;-83
2021/07/11 03:33:43;;;;;;;5.50;3.83;;;;;;;18.44;66.03;100403.06;4914494;28;98605;-84
2021/07/11 03:36:11;;;;;;;6.05;3.75;;;;;;;18.59;65.92;100400.31;4892897;28;101700;-84
2021/07/11 03:38:42;;;;;;;4.95;3.60;;;;;;;18.58;65.62;100366.72;4898725;28;96763;-83
2021/07/11 03:41:11;;;;;;;;;;;;;;;18.65;65.82;100405.25;4928034;28;96922;-83
2021/07/11 03:43:39;;;;;;;4.78;3.70;;;;;;;18.66;66.02;100405.13;4917848;28;101524;-83
2021/07/11 03:46:07;;;;;;;6.18;3.30;;;;;;;18.76;65.71;100397.41;4903049;28;101620;-83
2021/07/11 03:48:46;;;;;;;7.68;3.83;;;;;;;18.84;65.29;100399.56;4923467;28;97278;-83
2021/07/11 03:51:13;;;;;;;4.82;3.35;;;;;;;18.82;64.78;100382.88;4903716;28;96948;-83
2021/07/11 03:53:39;;;;;;;4.85;3.10;;;;;;;18.80;65.08;100374.16;4906945;28;101612;-83
2021/07/11 03:56:06;;;;;;;5.35;3.33;;;;;;;18.85;64.49;100386.19;4911610;28;101424;-83
2021/07/11 03:58:36;;;;;;;6.57;3.85;;;;;;;18.93;64.71;100402.47;4893397;28;96711;-83
2021/07/11 04:01:02;;;;;;;5.22;3.53;;;;;;;18.91;64.60;100400.88;4904370;28;96710;-83
2021/07/11 04:03:31;;;;;;;7.40;3.15;;;;;;;18.84;64.57;100389.78;4922183;28;98142;-83
2021/07/11 04:05:57;;;;;;;5.20;3.67;;;;;;;18.99;64.23;100378.13;4910561;28;101519;-83
2021/07/11 04:08:23;;;;;;;4.35;3.28;;;;;;;19.03;64.55;100400.06;4926477;28;97273;-83
2021/07/11 04:10:49;;;;;;;6.53;3.55;;;;;;;19.26;63.88;100401.13;4901996;28;96885;-84
2021/07/11 04:13:15;;;;;;;7.03;3.60;;;;;;;19.16;63.58;100373.44;4914531;28;98413;-85
2021/07/11 04:15:44;;;;;;;4.22;2.92;;;;;;;19.21;63.59;100396.13;4883657;28;101470;-84
2021/07/11 04:18:13;;;;;;;5.35;2.90;;;;;;;19.07;63.51;100368.75;4894809;28;97313;-83
2021/07/11 04:20:41;;;;;;;3.97;3.13;;;;;;;19.25;63.64;100382.59;4920869;28;97116;-83
2021/07/11 04:23:07;;;;;;;4.22;3.40;;;;;;;19.23;63.21;100372.06;4913857;28;101534;-83
2021/07/11 04:25:34;;;;;;;3.33;2.88;;;;;;;19.38;63.22;100388.78;4885187;28;101623;-83
2021/07/11 04:28:01;;;;;;;4.80;3.20;;;;;;;19.48;63.21;100392.50;4907073;28;96819;-83
2021/07/11 04:30:27;;;;;;;7.30;3.53;;;;;;;19.54;62.78;100384.06;4926585;28;97051;-83
2021/07/11 04:32:53;;;;;;;6.63;3.05;;;;;;;19.68;62.68;100404.44;4910092;28;98636;-83
2021/07/11 04:35:19;;;;;;;5.38;3.35;;;;;;;19.70;61.94;100373.25;4917251;28;101286;-83
2021/07/11 04:37:44;;;;;;;6.15;3.50;;;;;;;19.90;61.47;100366.50;4913820;28;96740;-83
2021/07/11 04:40:10;;;;;;;4.13;3.17;;;;;;;19.99;61.74;100399.59;4910983;28;96924;-83
2021/07/11 04:42:36;;;;;;;6.20;3.03;;;;;;;20.08;61.65;100396.28;4894509;28;101773;-83
2021/07/11 04:45:03;;;;;;;5.68;3.00;;;;;;;20.27;60.78;100396.59;4920329;28;98442;-83
2021/07/11 04:47:29;;;;;;;5.15;3.15;;;;;;;20.41;60.14;100400.09;4913549;28;97106;-83
2021/07/11 04:49:55;;;;;;;4.13;2.92;;;;;;;20.38;60.24;100379.00;4900514;28;96858;-83
2021/07/11 04:52:20;;;;;;;5.45;3.30;;;;;;;20.72;59.99;100391.53;4926141;28;99643;-83
2021/07/11 04:54:48;;;;;;;4.50;3.47;;;;;;;20.77;59.62;100389.38;4909561;28;100976;-83
2021/07/11 04:57:13;;;;;;;4.95;3.05;;;;;;;20.94;58.96;100392.56;4892079;28;96832;-83
2021/07/11 04:59:39;;;;;;;4.15;3.20;;;;;;;21.00;58.44;100378.75;4884824;28;96938;-83
2021/07/11 05:02:04;;;;;;;7.70;3.55;;;;;;;21.00;58.45;100352.06;4899369;28;101881;-83
2021/07/11 05:04:30;;;;;;;4.63;2.97;;;;;;;21.27;58.18;100381.13;4900249;28;99746;-83
2021/07/11 05:06:56;;;;;;;5.53;3.22;;;;;;;21.58;57.76;100381.41;4913103;28;96917;-84
2021/07/11 05:09:21;;;;;;;5.68;2.80;;;;;;;21.78;57.04;100393.19;4919873;28;97011;-84
2021/07/11 05:11:47;;;;;;;5.07;3.30;;;;;;;21.70;56.94;100391.16;4916466;28;97789;-83
2021/07/11 05:14:12;;;;;;;3.67;2.60;;;;;;;21.72;57.05;100381.16;4900506;28;101151;-83
2021/07/11 05:16:38;;;;;;;5.80;3.38;;;;;;;21.87;56.24;100369.25;4897408;28;97576;-83
2021/07/11 05:19:03;;;;;;;5.43;2.78;;;;;;;22.02;56.32;100377.00;4926068;28;96931;-83
2021/07/11 05:21:29;;;;;;;7.97;3.05;;;;;;;22.11;55.92;100381.63;4908750;28;100459;-83
2021/07/11 05:23:56;;;;;;;9.38;3.03;;;;;;;22.04;56.01;100391.94;4910291;28;101486;-83
2021/07/11 05:26:22;;;;;;;6.05;3.13;;;;;;;22.03;55.52;100365.34;4925987;28;96711;-83
2021/07/11 05:28:48;;;;;;;3.90;2.83;;;;;;;22.38;55.51;100381.22;4903032;28;96947;-83
2021/07/11 05:31:13;;;;;;;5.32;3.58;;;;;;;22.67;55.42;100386.81;4911245;28;101566;-83
2021/07/11 05:33:39;;;;;;;7.95;2.90;;;;;;;22.84;53.88;100372.00;4915940;28;101205;-83
2021/07/11 05:36:07;;;;;;;4.80;3.25;;;;;;;22.81;54.48;100369.59;4913165;28;96699;-82
2021/07/11 05:38:33;;;;;;;4.30;2.92;;;;;;;22.96;54.23;100379.03;4887208;28;97299;-84
2021/07/11 05:40:59;;;;;;;4.10;3.10;;;;;;;23.43;53.50;100379.44;4919052;28;101307;-83
2021/07/11 05:43:24;;;;;;;5.93;3.00;;;;;;;23.59;52.71;100352.19;4925710;28;101379;-83
2021/07/11 05:45:50;;;;;;;3.78;3.17;;;;;;;24.01;52.02;100381.53;4909829;28;96847;-83
2021/07/11 05:48:15;;;;;;;3.38;2.75;;;;;;;24.50;51.09;100377.13;4912722;28;97041;-83
2021/07/11 05:50:41;;;;;;;5.75;3.20;;;;;;;24.94;49.15;100377.50;4912959;28;98474;-83
2021/07/11 05:53:10;;;;;;;4.53;3.38;;;;;;;25.35;48.06;100375.47;4896076;28;100973;-82
2021/07/11 05:55:37;;;;;;;3.80;3.08;;;;;;;26.01;47.37;100366.44;4901235;28;96668;-82
2021/07/11 05:58:04;;;;;;;4.15;3.60;;;;;;;26.41;45.69;100352.56;4917016;28;96980;-83
2021/07/11 06:00:29;;;;;;;4.40;2.75;;;;;;;27.53;44.21;100364.53;4893281;28;101473;-83
2021/07/11 06:02:55;;;;;;;7.05;3.60;;;;;;;28.44;41.74;100353.88;4903401;28;100210;-83
2021/07/11 06:05:21;;;;;;;4.28;3.53;;;;;;;29.41;40.28;100345.91;4913269;28;96660;-84
2021/07/11 06:07:46;;;;;;;4.80;3.30;;;;;;;30.08;39.15;100352.69;4912743;28;96870;-84
2021/07/11 06:10:12;;;;;;;5.65;3.33;;;;;;;30.72;37.67;100344.31;4896828;28;101310;-83
2021/07/11 06:12:38;;;;;;;5.88;3.00;;;;;;;30.97;37.37;100340.38;4896402;28;101607;-83
2021/07/11 06:15:05;;;;;;;4.93;3.53;;;;;;;31.22;36.79;100299.47;4913003;28;96714;-83
2021/07/11 06:17:32;;;;;;;3.17;2.88;;;;;;;32.31;35.49;100338.41;4904314;28;96784;-85
2021/07/11 06:19:59;;;;;;;6.53;3.17;;;;;;;32.82;34.50;100329.28;4910077;28;101194;-85
2021/07/11 06:22:25;;;;;;;4.90;2.90;;;;;;;33.34;33.24;100334.25;4904623;28;101107;-85
2021/07/11 06:24:51;;;;;;;2.95;2.65;;;;;;;34.10;33.36;100349.72;4897583;28;96857;-86
2021/07/11 06:27:16;;;;;;;4.53;2.95;;;;;;;34.36;32.21;100326.31;4903317;28;96911;-87
2021/07/11 06:29:42;;;;;;;4.47;2.95;;;;;;;34.24;31.82;100340.53;4920508;28;101441;-86
2021/07/11 06:32:07;;;;;;;4.78;2.40;;;;;;;34.67;31.89;100351.06;4891503;28;101418;-86
2021/07/11 06:34:33;;;;;;;2.55;2.33;;;;;;;34.31;31.54;100329.63;4911056;28;97210;-86
2021/07/11 06:36:59;;;;;;;4.47;2.30;;;;;;;34.91;30.45;100335.16;4909221;28;96948;-86
2021/07/11 06:39:24;;;;;;;4.00;2.53;;;;;;;34.76;31.18;100342.69;4907631;28;101426;-84
2021/07/11 06:41:50;;;;;;;3.75;2.40;;;;;;;34.88;31.00;100336.41;4897864;28;101092;-87
2021/07/11 06:44:15;;;;;;;3.72;2.13;;;;;;;35.35;30.71;100329.00;4925339;28;96835;-86
2021/07/11 06:46:41;;;;;;;3.95;2.08;;;;;;;35.82;29.94;100326.94;4908478;28;96832;-86
2021/07/11 06:49:07;;;;;;;3.42;2.38;;;;;;;35.93;29.41;100330.06;4917994;28;97743;-86
2021/07/11 06:51:32;;;;;;;2.13;1.92;;;;;;;36.33;29.36;100324.34;4898945;28;100909;-87
2021/07/11 06:53:58;;;;;;;4.35;2.28;;;;;;;36.27;29.24;100310.50;4904331;28;97573;-87
2021/07/11 06:56:23;;;;;;;2.50;2.15;;;;;;;36.22;29.15;100321.28;4924060;28;96829;-86
2021/07/11 06:58:49;;;;;;;3.00;2.13;;;;;;;36.29;28.97;100307.56;4930495;28;98289;-87
2021/07/11 07:01:14;;;;;;;2.88;2.20;;;;;;;37.03;28.20;100322.34;4929436;28;101618;-86
2021/07/11 07:03:40;;;;;;;2.45;1.85;;;;;;;37.03;27.77;100319.63;4899066;28;96678;-87
2021/07/11 07:06:09;;;;;;;2.83;1.80;;;;;;;37.05;27.96;100314.75;4891154;28;96996;-86
2021/07/11 07:08:35;;;;;;;3.50;2.17;;;;;;;37.82;27.46;100312.38;4895130;28;100891;-87
2021/07/11 07:11:00;;;;;;;2.80;2.00;;;;;;;37.13;28.01;100310.88;4931995;28;98409;-86
2021/07/11 07:13:26;;;;;;;2.78;1.90;;;;;;;37.11;27.40;100318.47;4894839;28;96759;-87
2021/07/11 07:15:52;;;;;;;3.65;2.03;;;;;;;36.96;27.75;100296.91;4922355;28;96946;-87
2021/07/11 07:18:17;;;;;;;3.33;1.88;;;;;;;37.59;27.84;100304.91;4909015;28;101673;-87
2021/07/11 07:20:43;;;;;;;3.67;2.08;;;;;;;38.19;26.78;100308.72;4910898;28;100334;-87
2021/07/11 07:23:08;;;;;;;2.88;1.75;;;;;;;38.01;26.75;100301.41;4924726;28;96691;-87
2021/07/11 07:25:34;;;;;;;2.33;2.00;;;;;;;37.56;27.62;100299.88;4905159;28;96912;-86
2021/07/11 07:27:59;;;;;;;4.05;1.90;;;;;;;38.11;26.75;100311.78;4903609;28;101091;-86
2021/07/11 07:30:25;;;;;;;2.53;1.80;;;;;;;37.72;26.88;100301.13;4911832;28;101417;-85
2021/07/11 07:32:51;;;;;;;2.80;1.60;;;;;;;38.57;26.48;100304.75;4927796;28;96781;-87
2021/07/11 07:35:18;;;;;;;2.85;1.83;;;;;;;38.26;26.74;100303.97;4890886;28;96911;-87
2021/07/11 07:37:45;;;;;;;2.28;1.60;;;;;;;38.73;26.37;100309.56;4887737;28;101359;-86
2021/07/11 07:40:12;;;;;;;2.58;2.00;;;;;;;38.91;25.95;100295.72;4905739;28;101613;-86
2021/07/11 07:42:37;;;;;;;2.78;1.90;;;;;;;38.59;25.81;100297.13;4908052;28;97262;-87
2021/07/11 07:45:04;;;;;;;4.47;1.90;;;;;;;38.77;25.73;100304.41;4907153;28;97606;-87
2021/07/11 07:47:30;;;;;;;2.05;1.83;;;;;;;38.71;26.39;100307.03;4905497;28;101662;-88
2021/07/11 07:49:56;;;;;;;2.55;1.73;;;;;;;38.81;25.91;100311.13;4896353;28;102797;-86
2021/07/11 07:52:21;;;;;;;2.10;1.60;;;;;;;38.22;26.25;100300.84;4899994;28;96826;-88
2021/07/11 07:54:47;;;;;;;1.60;1.50;;;;;;;37.73;27.20;100305.56;4906499;28;96877;-87
2021/07/11 07:57:15;;;;;;;4.85;1.70;;;;;;;37.69;26.90;100307.06;4914303;28;98754;-89
2021/07/11 07:59:41;;;;;;;2.10;1.40;;;;;;;37.70;26.99;100286.00;4902341;28;100640;-87
2021/07/11 08:02:07;;;;;;;4.43;2.15;;;;;;;38.52;26.70;100302.75;4900884;28;96856;-86
2021/07/11 08:04:33;;;;;;;2.78;1.65;;;;;;;38.44;26.69;100306.66;4902271;28;97367;-86
2021/07/11 08:06:58;;;;;;;1.80;1.70;;;;;;;38.84;26.61;100310.63;4898549;28;101168;-86
2021/07/11 08:09:24;;;;;;;3.80;1.60;;;;;;;38.35;26.54;100302.56;4907935;28;101403;-87
2021/07/11 08:11:50;;;;;;;3.28;1.48;;;;;;;38.87;26.13;100302.78;4926366;28;96734;-86
2021/07/11 08:14:15;;;;;;;1.85;1.70;;;;;;;38.79;26.95;100303.09;4899550;28;96957;-87
2021/07/11 08:16:42;;;;;;;2.05;1.83;;;;;;;38.75;26.44;100293.69;4904318;28;101851;-86
2021/07/11 08:19:08;;;;;;;2.05;1.35;;;;;;;38.68;26.09;100279.25;4909156;28;101106;-86
2021/07/11 08:21:34;;;;;;;2.63;1.40;;;;;;;38.64;26.05;100306.31;4928363;28;96717;-87
2021/07/11 08:23:59;;;;;;;2.13;1.40;;;;;;;38.42;26.40;100299.75;4914184;28;97408;-86
2021/07/11 08:26:25;;;;;;;4.38;1.60;;;;;;;38.54;26.55;100291.53;4903921;28;98147;-86
2021/07/11 08:28:50;;;;;;;2.90;1.70;;;;;;;38.66;26.83;100298.69;4920873;28;98417;-85
2021/07/11 08:31:16;;;;;;;1.65;1.50;;;;;;;38.36;26.86;100296.00;4898421;28;96727;-86
2021/07/11 08:33:41;;;;;;;3.05;1.95;;;;;;;39.01;26.69;100284.19;4904358;28;97021;-86
2021/07/11 08:36:07;;;;;;;5.00;1.55;;;;;;;39.13;26.14;100295.13;4905821;28;101272;-86
2021/07/11 08:38:33;;;;;;;1.95;1.60;;;;;;;38.89;26.14;100278.66;4911793;28;101259;-86
2021/07/11 08:40:58;;;;;;;1.45;1.35;;;;;;;38.98;26.28;100270.09;4906154;28;97289;-86
2021/07/11 08:43:24;;;;;;;2.78;1.75;;;;;;;38.46;26.50;100290.81;4924236;28;97885;-86
2021/07/11 08:45:50;;;;;;;1.63;1.52;;;;;;;38.57;26.21;100269.94;4888115;28;101758;-89
2021/07/11 08:48:15;;;;;;;1.40;1.30;;;;;;;38.04;26.96;100260.66;4898946;28;100075;-87
2021/07/11 08:50:41;;;;;;;3.00;1.38;;;;;;;38.02;26.98;100281.13;4912456;28;96836;-86
2021/07/11 08:53:12;;;;;;;5.60;1.38;;;;;;;37.87;27.22;100283.44;4898183;28;96938;-87
2021/07/11 08:55:37;;;;;;;3.35;1.40;;;;;;;37.38;27.67;100297.97;4890444;28;101722;-87
2021/07/11 08:58:03;;;;;;;2.67;1.48;;;;;;;37.32;27.95;100284.34;4903850;28;98037;-86
2021/07/11 09:00:31;;;;;;;3.65;1.20;;;;;;;36.88;28.48;100291.75;4903387;28;97272;-86
2021/07/11 09:02:56;;;;;;;3.33;1.40;;;;;;;35.33;30.57;100294.78;4911177;28;97042;-86
2021/07/11 09:05:39;;;;;;;3.63;1.33;;;;;;;35.06;31.02;100304.94;4891239;28;101042;-86
2021/07/11 09:08:08;;;;;;;2.88;1.23;;;;;;;35.85;30.21;100308.47;4907079;28;101268;-86
2021/07/11 09:10:46;;;;;;;2.25;1.48;;;;;;;35.63;31.04;100303.31;4892379;28;96785;-86
2021/07/11 09:13:15;;;;;;;2.67;1.40;;;;;;;35.85;29.89;100298.38;4903185;28;96959;-87
2021/07/11 09:15:44;;;;;;;2.45;1.50;;;;;;;35.21;30.91;100286.44;4910812;28;98744;-87
2021/07/11 09:18:10;;;;;;;6.75;1.50;;;;;;;34.79;31.20;100299.50;4903188;28;100628;-87
2021/07/11 09:20:56;;;;;;;2.03;1.33;;;;;;;33.98;32.35;100291.44;4881761;28;96821;-87
2021/07/11 09:23:23;;;;;;;5.22;1.45;;;;;;;33.21;33.34;100300.72;4910137;28;96764;-88
2021/07/11 09:26:17;;;;;;;1.52;1.20;;;;;;;32.46;34.78;100303.06;4894497;28;101422;-88
2021/07/11 09:28:51;;;;;;;4.28;1.65;;;;;;;32.24;35.71;100307.63;4894439;28;101642;-90
2021/07/11 09:31:23;;;;;;;3.05;1.40;;;;;;;32.29;35.20;100310.63;4899936;28;96838;-87
2021/07/11 09:33:59;;;;;;;5.63;1.50;;;;;;;32.17;35.75;100304.88;4915988;28;96851;-88
2021/07/11 09:36:25;;;;;;;3.20;1.40;;;;;;;32.02;35.58;100299.47;4893662;28;101670;-85
2021/07/11 09:38:53;;;;;;;7.22;2.47;;;;;;;31.69;36.22;100284.66;4910480;28;101586;-86
2021/07/11 09:41:27;;;;;;;3.78;1.48;;;;;;;32.05;35.90;100294.69;4907948;28;96837;-84
2021/07/11 09:43:55;;;;;;;2.03;1.70;;;;;;;31.60;36.55;100299.38;4921454;28;97182;-85
2021/07/11 09:46:22;;;;;;;2.13;1.45;;;;;;;31.52;36.59;100289.47;4912000;28;101505;-84
2021/07/11 09:48:49;;;;;;;5.25;1.73;;;;;;;31.32;36.95;100291.88;4896213;28;101416;-84
2021/07/11 09:51:23;;;;;;;4.53;1.30;;;;;;;31.43;36.15;100268.91;4918550;28;97339;-85
2021/07/11 09:53:50;;;;;;;3.67;1.70;;;;;;;31.56;36.17;100269.94;4926371;28;97327;-84
2021/07/11 09:56:51;;;;;;;4.25;1.48;;;;;;;31.39;36.84;100286.56;4908028;28;100568;-83
2021/07/11 09:59:18;;;;;;;3.50;1.50;;;;;;;31.48;36.96;100271.91;4914505;28;99174;-83
2021/07/11 10:01:44;;;;;;;1.92;1.33;;;;;;;31.40;36.98;100280.13;4921606;28;96937;-83
2021/07/11 10:04:11;;;;;;;1.70;1.60;;;;;;;31.17;37.32;100291.91;4907207;28;96918;-85
2021/07/11 10:06:38;;;;;;;5.63;1.95;;;;;;;30.98;37.18;100292.44;4927315;28;98601;-84
2021/07/11 10:09:05;;;;;;;3.25;1.58;;;;;;;30.80;37.50;100287.38;4908780;28;101387;-84
2021/07/11 10:11:30;;;;;;;3.45;1.40;;;;;;;30.95;37.50;100295.53;4910307;28;96879;-84
2021/07/11 10:13:56;;;;;;;3.60;1.23;;;;;;;31.09;36.95;100281.97;4911067;28;97087;-84
2021/07/11 10:16:26;;;;;;;2.05;1.50;;;;;;;30.97;37.62;100286.19;4915095;28;101347;-84
2021/07/11 10:18:56;;;;;;;3.45;1.55;;;;;;;30.94;37.74;100283.84;4899836;28;101444;-83
2021/07/11 10:21:27;;;;;;;3.60;1.20;;;;;;;30.96;38.56;100278.25;4907250;28;96869;-81
2021/07/11 10:23:52;;;;;;;2.88;1.25;;;;;;;30.49;37.87;100272.06;4911336;28;96777;-82
2021/07/11 10:26:19;;;;;;;1.40;1.30;;;;;;;30.60;38.23;100287.03;4906168;28;101642;-82
2021/07/11 10:28:50;;;;;;;1.48;1.30;;;;;;;30.52;38.39;100282.53;4911122;28;100966;-83
2021/07/11 10:31:21;;;;;;;;;;;;;;;30.44;38.66;100291.56;4899788;28;96817;-84
2021/07/11 10:33:47;;;;;;;3.45;1.38;;;;;;;30.56;38.29;100283.84;4923218;28;97306;-77
2021/07/11 10:36:13;;;;;;;4.82;1.33;;;;;;;30.36;37.94;100278.09;4905513;28;98703;-77
2021/07/11 10:38:50;;;;;;;3.10;1.40;;;;;;;29.81;39.49;100295.34;4903641;28;97720;-76
2021/07/11 10:41:27;;;;;;;2.65;1.40;;;;;;;29.74;40.19;100307.91;4909014;28;97241;-77
2021/07/11 10:44:19;;;;;;;3.55;1.48;;;;;;;29.78;39.51;100293.00;4923644;28;97395;-78
2021/07/11 10:46:56;;;;;;;2.97;1.40;;;;;;;29.90;40.38;100278.06;4924428;28;102007;-77
2021/07/11 10:49:24;;;;;;;2.08;1.60;;;;;;;30.14;40.42;100308.72;4895598;28;101366;-78
2021/07/11 10:51:52;;;;;;;1.85;1.75;;;;;;;29.90;39.85;100279.91;4921184;28;97137;-79
2021/07/11 10:54:27;;;;;;;6.47;1.80;;;;;;;29.92;40.25;100277.88;4910718;28;97333;-78
2021/07/11 10:56:55;;;;;;;3.58;1.67;;;;;;;29.71;39.94;100263.13;4931433;28;101479;-79
2021/07/11 10:59:25;;;;;;;2.13;1.70;;;;;;;29.79;40.41;100286.59;4913834;28;98187;-78
2021/07/11 11:01:51;;;;;;;3.00;1.60;;;;;;;29.89;40.15;100297.19;4904422;28;96892;-76
2021/07/11 11:04:17;;;;;;;2.00;1.60;;;;;;;29.70;40.32;100293.03;4909427;28;96827;-73
2021/07/11 11:06:42;;;;;;;2.00;1.70;;;;;;;29.77;40.50;100297.59;4924897;28;98614;-82
2021/07/11 11:09:08;;;;;;;2.70;1.67;;;;;;;29.91;40.48;100290.56;4898560;28;100670;-88
2021/07/11 11:11:34;;;;;;;4.10;1.70;;;;;;;30.12;40.44;100291.78;4891891;28;96848;-88
2021/07/11 11:14:09;;;;;;;4.97;1.80;;;;;;;30.04;40.58;100291.84;4914177;28;96966;-89
2021/07/11 11:16:45;;;;;;;3.40;1.80;;;;;;;29.90;41.10;100288.88;4928385;28;98704;-89
2021/07/11 11:19:15;;;;;;;2.72;2.40;;;;;;;29.61;40.74;100265.19;4918847;28;101309;-87
2021/07/11 11:21:41;;;;;;;3.28;2.17;;;;;;;29.63;41.19;100255.06;4879351;28;96823;-79
2021/07/11 11:24:08;;;;;;;5.32;1.70;;;;;;;30.00;41.19;100289.50;4913526;28;97000;-78
2021/07/11 11:26:34;;;;;;;2.22;2.00;;;;;;;29.78;40.57;100264.09;4907099;28;100838;-76